createdAt,value
2023-03-08T00:00:34.948Z,24.07
2023-03-08T00:03:01.261Z,24.07
2023-03-08T00:05:27.616Z,23.94
2023-03-08T00:07:53.976Z,23.78
2023-03-08T00:10:20.396Z,23.90
2023-03-08T00:12:46.706Z,23.97
2023-03-08T00:15:13.015Z,24.03
2023-03-08T00:17:39.356Z,24.01
2023-03-08T00:20:06.354Z,24.01
2023-03-08T00:22:36.688Z,23.97
2023-03-08T00:25:03.114Z,23.96
2023-03-08T00:27:29.560Z,23.98
2023-03-08T00:29:55.876Z,23.96
2023-03-08T00:32:22.288Z,23.95
2023-03-08T00:34:48.627Z,23.94
2023-03-08T00:37:14.963Z,23.94
2023-03-08T00:39:41.272Z,23.90
2023-03-08T00:42:07.592Z,23.89
2023-03-08T00:44:33.916Z,23.89
2023-03-08T00:47:00.324Z,23.87
2023-03-08T00:49:26.788Z,23.87
2023-03-08T00:51:53.113Z,23.86
2023-03-08T00:54:19.415Z,23.83
2023-03-08T00:56:45.740Z,23.86
2023-03-08T00:59:12.071Z,23.79
2023-03-08T01:01:38.391Z,23.78
2023-03-08T01:04:04.952Z,23.76
2023-03-08T01:06:31.321Z,23.74
2023-03-08T01:08:57.623Z,23.72
2023-03-08T01:11:24.535Z,23.71
2023-03-08T01:13:51.135Z,23.68
2023-03-08T01:16:18.706Z,23.55
2023-03-08T01:18:45.042Z,23.38
2023-03-08T01:21:11.404Z,23.31
2023-03-08T01:23:37.970Z,23.22
2023-03-08T01:26:11.430Z,23.17
2023-03-08T01:28:37.737Z,23.16
2023-03-08T01:31:04.604Z,23.13
2023-03-08T01:33:30.939Z,23.08
2023-03-08T01:35:57.293Z,23.08
2023-03-08T01:38:23.713Z,23.10
2023-03-08T01:40:50.040Z,23.13
2023-03-08T01:43:22.907Z,23.15
2023-03-08T01:46:01.165Z,23.13
2023-03-08T01:48:30.052Z,23.13
2023-03-08T01:50:56.397Z,23.10
2023-03-08T01:53:22.718Z,23.08
2023-03-08T01:55:49.259Z,23.07
2023-03-08T01:58:15.586Z,23.03
2023-03-08T02:00:41.891Z,23.01
2023-03-08T02:03:08.609Z,22.96
2023-03-08T02:05:36.536Z,22.93
2023-03-08T02:08:03.022Z,22.89
2023-03-08T02:10:29.340Z,22.89
2023-03-08T02:13:14.223Z,22.86
2023-03-08T02:15:40.553Z,22.82
2023-03-08T02:18:07.001Z,22.81
2023-03-08T02:20:37.439Z,22.78
2023-03-08T02:23:09.570Z,22.75
2023-03-08T02:25:35.887Z,22.74
2023-03-08T02:28:02.218Z,22.69
2023-03-08T02:30:30.487Z,22.68
2023-03-08T02:32:56.808Z,22.65
2023-03-08T02:35:23.120Z,22.62
2023-03-08T02:37:49.472Z,22.63
2023-03-08T02:40:15.775Z,22.58
2023-03-08T02:42:42.102Z,22.52
2023-03-08T02:45:08.659Z,22.47
2023-03-08T02:47:34.984Z,22.45
2023-03-08T02:50:01.288Z,22.52
2023-03-08T02:52:27.635Z,22.53
2023-03-08T02:54:53.955Z,22.54
2023-03-08T02:57:20.820Z,22.54
2023-03-08T02:59:47.117Z,22.50
2023-03-08T03:02:13.445Z,22.51
2023-03-08T03:04:39.756Z,22.48
2023-03-08T03:07:06.099Z,22.47
2023-03-08T03:09:35.286Z,22.46
2023-03-08T03:12:01.618Z,22.45
2023-03-08T03:14:28.228Z,22.43
2023-03-08T03:16:55.604Z,22.42
2023-03-08T03:19:21.905Z,22.40
2023-03-08T03:21:48.213Z,22.38
2023-03-08T03:24:14.543Z,22.36
2023-03-08T03:26:40.858Z,22.34
2023-03-08T03:29:07.183Z,22.33
2023-03-08T03:31:34.205Z,22.32
2023-03-08T03:34:00.917Z,22.32
2023-03-08T03:36:27.254Z,22.33
2023-03-08T03:38:53.576Z,22.31
2023-03-08T03:41:20.602Z,22.28
2023-03-08T03:43:47.166Z,22.27
2023-03-08T03:46:14.650Z,22.26
2023-03-08T03:48:40.987Z,22.24
2023-03-08T03:51:14.735Z,22.22
2023-03-08T03:53:41.090Z,22.22
2023-03-08T03:56:12.158Z,22.21
2023-03-08T03:58:38.477Z,22.19
2023-03-08T04:01:08.505Z,22.19
2023-03-08T04:03:34.869Z,22.17
2023-03-08T04:06:12.009Z,22.13
2023-03-08T04:08:42.433Z,22.10
2023-03-08T04:11:09.326Z,22.08
2023-03-08T04:13:35.940Z,22.07
2023-03-08T04:16:08.644Z,22.04
2023-03-08T04:18:35.133Z,22.02
2023-03-08T04:21:01.449Z,22.00
2023-03-08T04:23:27.780Z,21.99
2023-03-08T04:25:54.078Z,22.05
2023-03-08T04:28:20.395Z,22.02
2023-03-08T04:30:46.814Z,22.01
2023-03-08T04:33:13.162Z,22.02
2023-03-08T04:35:39.673Z,22.01
2023-03-08T04:38:06.012Z,22.00
2023-03-08T04:40:32.324Z,21.99
2023-03-08T04:42:58.887Z,21.95
2023-03-08T04:45:25.186Z,21.92
2023-03-08T04:47:51.515Z,21.91
2023-03-08T04:50:17.818Z,21.89
2023-03-08T04:52:44.385Z,21.89
2023-03-08T04:55:10.716Z,21.90
2023-03-08T04:57:37.119Z,21.89
2023-03-08T05:00:05.790Z,21.87
2023-03-08T05:02:33.559Z,21.85
2023-03-08T05:05:00.036Z,21.84
2023-03-08T05:07:26.366Z,21.82
2023-03-08T05:09:52.694Z,21.81
2023-03-08T05:12:19.038Z,21.79
2023-03-08T05:14:45.389Z,21.77
2023-03-08T05:17:11.719Z,21.77
2023-03-08T05:19:38.037Z,21.74
2023-03-08T05:22:05.642Z,21.72
2023-03-08T05:24:32.349Z,21.70
2023-03-08T05:26:58.882Z,21.68
2023-03-08T05:29:25.204Z,21.66
2023-03-08T05:31:51.527Z,21.64
2023-03-08T05:34:17.862Z,21.61
2023-03-08T05:36:44.181Z,21.66
2023-03-08T05:39:10.753Z,21.68
2023-03-08T05:41:37.069Z,21.67
2023-03-08T05:44:03.391Z,21.66
2023-03-08T05:46:31.656Z,21.66
2023-03-08T05:48:58.272Z,21.63
2023-03-08T05:51:24.584Z,21.62
2023-03-08T05:53:51.132Z,21.61
2023-03-08T05:56:18.155Z,21.61
2023-03-08T05:58:46.711Z,21.59
2023-03-08T06:01:17.928Z,21.58
2023-03-08T06:03:44.686Z,21.58
2023-03-08T06:06:10.988Z,21.55
2023-03-08T06:08:37.347Z,21.56
2023-03-08T06:11:03.652Z,21.56
2023-03-08T06:13:30.040Z,21.55
2023-03-08T06:15:56.935Z,21.52
2023-03-08T06:18:23.354Z,21.50
2023-03-08T06:21:02.728Z,21.48
2023-03-08T06:23:29.501Z,21.47
2023-03-08T06:25:55.825Z,21.45
2023-03-08T06:28:22.169Z,21.44
2023-03-08T06:30:51.534Z,21.43
2023-03-08T06:33:18.208Z,21.42
2023-03-08T06:35:44.603Z,21.41
2023-03-08T06:38:11.046Z,21.42
2023-03-08T06:40:37.363Z,21.41
2023-03-08T06:43:03.701Z,21.39
2023-03-08T06:45:30.062Z,21.39
2023-03-08T06:47:56.399Z,21.38
2023-03-08T06:50:22.934Z,21.37
2023-03-08T06:52:49.244Z,21.35
2023-03-08T06:55:15.561Z,21.37
2023-03-08T06:57:41.873Z,21.37
2023-03-08T07:00:09.579Z,21.37
2023-03-08T07:02:35.905Z,21.40
2023-03-08T07:05:02.219Z,21.39
2023-03-08T07:07:28.579Z,21.37
2023-03-08T07:09:54.994Z,21.37
2023-03-08T07:12:21.294Z,21.35
2023-03-08T07:14:47.920Z,21.35
2023-03-08T07:17:14.291Z,21.33
2023-03-08T07:19:40.628Z,21.32
2023-03-08T07:22:06.937Z,21.30
2023-03-08T07:24:33.292Z,21.29
2023-03-08T07:26:59.601Z,21.27
2023-03-08T07:29:25.951Z,21.26
2023-03-08T07:31:52.367Z,21.26
2023-03-08T07:34:18.725Z,21.25
2023-03-08T07:36:45.029Z,21.24
2023-03-08T07:39:11.563Z,21.25
2023-03-08T07:41:37.872Z,21.27
2023-03-08T07:44:04.235Z,21.26
2023-03-08T07:46:30.624Z,21.27
2023-03-08T07:48:57.035Z,21.24
2023-03-08T07:51:23.461Z,21.26
2023-03-08T07:53:50.965Z,21.34
2023-03-08T07:56:17.298Z,21.43
2023-03-08T07:58:43.690Z,21.48
2023-03-08T08:01:10.502Z,21.51
2023-03-08T08:03:38.282Z,21.53
2023-03-08T08:06:05.141Z,21.53
2023-03-08T08:08:31.485Z,21.53
2023-03-08T08:10:57.804Z,21.54
2023-03-08T08:13:24.140Z,21.67
2023-03-08T08:16:00.332Z,21.78
2023-03-08T08:18:26.922Z,21.98
2023-03-08T08:20:59.904Z,22.08
2023-03-08T08:23:26.213Z,21.97
2023-03-08T08:25:52.522Z,21.95
2023-03-08T08:28:18.834Z,21.92
2023-03-08T08:30:45.153Z,21.89
2023-03-08T08:33:11.455Z,21.89
2023-03-08T08:35:43.409Z,22.01
2023-03-08T08:38:09.973Z,22.03
2023-03-08T08:40:36.796Z,22.12
2023-03-08T08:43:03.112Z,22.16
2023-03-08T08:45:29.453Z,22.14
2023-03-08T08:47:55.808Z,22.13
2023-03-08T08:50:22.155Z,22.10
2023-03-08T08:52:48.494Z,22.10
2023-03-08T08:55:14.869Z,22.07
2023-03-08T08:57:41.169Z,21.94
2023-03-08T09:00:08.441Z,21.89
2023-03-08T09:02:34.782Z,21.83
2023-03-08T09:05:01.228Z,21.85
2023-03-08T09:07:27.621Z,21.86
2023-03-08T09:09:54.260Z,21.93
2023-03-08T09:12:21.170Z,21.94
2023-03-08T09:14:47.579Z,21.97
2023-03-08T09:17:13.972Z,21.95
2023-03-08T09:19:40.324Z,21.95
2023-03-08T09:22:06.658Z,21.93
2023-03-08T09:24:33.045Z,21.91
2023-03-08T09:26:59.398Z,21.86
2023-03-08T09:29:25.799Z,21.86
2023-03-08T09:31:52.450Z,21.86
2023-03-08T09:34:18.810Z,21.84
2023-03-08T09:36:45.212Z,21.83
2023-03-08T09:39:12.934Z,21.84
2023-03-08T09:41:47.472Z,21.83
2023-03-08T09:44:43.697Z,21.88
2023-03-08T09:47:15.675Z,22.09
2023-03-08T09:49:42.599Z,22.61
2023-03-08T09:52:12.926Z,23.00
2023-03-08T09:54:39.319Z,22.55
2023-03-08T09:57:08.751Z,22.55
2023-03-08T09:59:40.883Z,22.56
2023-03-08T10:02:25.502Z,22.56
2023-03-08T10:05:11.918Z,22.52
2023-03-08T10:07:50.986Z,22.51
2023-03-08T10:10:26.486Z,22.48
2023-03-08T10:13:04.803Z,22.28
2023-03-08T10:15:31.169Z,22.19
2023-03-08T10:17:58.698Z,22.15
2023-03-08T10:20:25.831Z,22.09
2023-03-08T10:23:10.670Z,22.08
2023-03-08T10:25:37.034Z,22.14
2023-03-08T10:28:03.868Z,21.90
2023-03-08T10:30:34.546Z,22.13
2023-03-08T10:33:00.989Z,22.27
2023-03-08T10:35:53.792Z,22.29
2023-03-08T10:38:20.273Z,22.37
2023-03-08T10:40:46.605Z,22.40
2023-03-08T10:43:27.278Z,22.48
2023-03-08T10:45:59.104Z,22.48
2023-03-08T10:48:25.444Z,22.47
2023-03-08T10:51:05.345Z,22.49
2023-03-08T10:53:31.859Z,22.53
2023-03-08T10:55:58.779Z,22.60
2023-03-08T10:58:35.454Z,22.62
2023-03-08T11:01:03.414Z,22.60
2023-03-08T11:03:29.795Z,22.65
2023-03-08T11:06:00.143Z,22.60
2023-03-08T11:08:31.141Z,22.64
2023-03-08T11:11:07.819Z,22.64
2023-03-08T11:13:35.499Z,22.60
2023-03-08T11:16:07.871Z,22.57
2023-03-08T11:18:52.257Z,22.57
2023-03-08T11:21:38.823Z,22.55
2023-03-08T11:24:05.133Z,22.45
2023-03-08T11:26:37.566Z,22.49
2023-03-08T11:29:04.650Z,22.55
2023-03-08T11:31:33.988Z,22.57
2023-03-08T11:34:18.979Z,22.62
2023-03-08T11:36:48.148Z,22.69
2023-03-08T11:39:33.535Z,22.78
2023-03-08T11:42:06.058Z,22.84
2023-03-08T11:44:44.674Z,22.87
2023-03-08T11:47:29.511Z,22.90
2023-03-08T11:50:14.503Z,22.90
2023-03-08T11:52:48.096Z,22.90
2023-03-08T11:55:32.857Z,22.90
2023-03-08T11:58:25.595Z,22.89
2023-03-08T12:00:53.382Z,22.89
2023-03-08T12:03:20.307Z,22.87
2023-03-08T12:05:51.082Z,22.88
2023-03-08T12:08:25.159Z,22.88
2023-03-08T12:10:56.655Z,22.86
2023-03-08T12:13:25.172Z,22.88
2023-03-08T12:15:55.892Z,22.88
2023-03-08T12:18:28.696Z,22.87
2023-03-08T12:20:57.762Z,22.86
2023-03-08T12:23:35.738Z,22.84
2023-03-08T12:26:08.064Z,22.80
2023-03-08T12:28:41.633Z,22.76
2023-03-08T12:31:27.952Z,22.72
2023-03-08T12:33:55.379Z,22.65
2023-03-08T12:36:24.523Z,22.60
2023-03-08T12:38:56.489Z,22.56
2023-03-08T12:41:26.543Z,22.51
2023-03-08T12:44:06.095Z,22.49
2023-03-08T12:47:01.905Z,22.51
2023-03-08T12:49:30.679Z,22.55
2023-03-08T12:52:01.457Z,22.60
2023-03-08T12:54:28.170Z,22.64
2023-03-08T12:56:54.615Z,22.64
2023-03-08T12:59:20.854Z,22.64
2023-03-08T13:01:58.438Z,22.64
2023-03-08T13:04:47.300Z,22.63
2023-03-08T13:07:24.776Z,22.60
2023-03-08T13:10:11.316Z,22.61
2023-03-08T13:12:39.837Z,22.61
2023-03-08T13:15:13.544Z,22.61
2023-03-08T13:17:40.704Z,22.67
2023-03-08T13:20:12.491Z,22.68
2023-03-08T13:22:45.361Z,22.69
2023-03-08T13:25:14.450Z,22.68
2023-03-08T13:27:52.852Z,22.71
2023-03-08T13:30:29.171Z,22.66
2023-03-08T13:32:55.522Z,22.63
2023-03-08T13:35:22.257Z,22.62
2023-03-08T13:37:52.031Z,22.61
2023-03-08T13:40:19.092Z,22.63
2023-03-08T13:42:58.439Z,22.61
2023-03-08T13:45:24.797Z,22.61
2023-03-08T13:47:51.200Z,22.59
2023-03-08T13:50:19.042Z,22.58
2023-03-08T13:52:45.352Z,22.55
2023-03-08T13:55:23.502Z,22.55
2023-03-08T13:57:52.556Z,22.56
2023-03-08T14:00:19.059Z,22.59
2023-03-08T14:02:45.794Z,22.63
2023-03-08T14:05:19.160Z,22.67
2023-03-08T14:07:54.826Z,22.59
2023-03-08T14:10:24.375Z,22.57
2023-03-08T14:12:50.700Z,22.53
2023-03-08T14:15:17.810Z,22.52
2023-03-08T14:17:44.180Z,22.50
2023-03-08T14:20:17.733Z,22.54
2023-03-08T14:22:46.374Z,22.51
2023-03-08T14:25:21.636Z,22.43
2023-03-08T14:27:47.970Z,22.40
2023-03-08T14:30:15.839Z,22.41
2023-03-08T14:32:42.703Z,22.42
2023-03-08T14:35:16.558Z,22.43
2023-03-08T14:37:43.737Z,22.44
2023-03-08T14:40:21.024Z,22.43
2023-03-08T14:42:48.013Z,22.41
2023-03-08T14:45:23.788Z,22.40
2023-03-08T14:47:54.247Z,22.39
2023-03-08T14:50:27.585Z,22.36
2023-03-08T14:52:55.066Z,22.33
2023-03-08T14:55:21.934Z,22.32
2023-03-08T14:57:48.255Z,22.30
2023-03-08T15:00:15.436Z,22.29
2023-03-08T15:02:42.535Z,22.24
2023-03-08T15:05:25.519Z,22.17
2023-03-08T15:07:54.588Z,22.21
2023-03-08T15:10:24.011Z,22.24
2023-03-08T15:12:50.370Z,22.26
2023-03-08T15:15:16.750Z,22.32
2023-03-08T15:17:43.668Z,22.35
2023-03-08T15:20:11.537Z,22.31
2023-03-08T15:22:40.064Z,22.34
2023-03-08T15:25:12.413Z,22.34
2023-03-08T15:27:38.731Z,22.36
2023-03-08T15:30:05.150Z,22.35
2023-03-08T15:32:31.537Z,22.33
2023-03-08T15:34:57.873Z,22.38
2023-03-08T15:37:24.222Z,22.38
2023-03-08T15:39:50.552Z,22.42
2023-03-08T15:42:16.862Z,22.44
2023-03-08T15:44:43.195Z,22.44
2023-03-08T15:47:09.986Z,22.48
2023-03-08T15:49:36.299Z,22.48
2023-03-08T15:52:02.615Z,22.49
2023-03-08T15:54:28.966Z,22.52
2023-03-08T15:56:55.440Z,22.50
2023-03-08T15:59:21.749Z,22.51
2023-03-08T16:01:48.154Z,22.51
2023-03-08T16:04:14.476Z,22.52
2023-03-08T16:06:43.734Z,22.58
2023-03-08T16:09:10.048Z,22.61
2023-03-08T16:11:36.383Z,22.60
2023-03-08T16:14:03.146Z,22.56
2023-03-08T16:16:44.406Z,22.53
2023-03-08T16:19:11.393Z,22.53
2023-03-08T16:21:38.056Z,22.51
2023-03-08T16:24:04.510Z,22.47
2023-03-08T16:26:30.971Z,22.43
2023-03-08T16:28:57.286Z,22.40
2023-03-08T16:31:23.781Z,22.40
2023-03-08T16:33:50.117Z,22.40
2023-03-08T16:36:16.530Z,22.44
2023-03-08T16:38:42.906Z,22.47
2023-03-08T16:41:13.164Z,22.45
2023-03-08T16:43:46.839Z,22.47
2023-03-08T16:46:14.917Z,22.45
2023-03-08T16:48:41.275Z,22.43
2023-03-08T16:51:07.593Z,22.44
2023-03-08T16:53:33.917Z,22.36
2023-03-08T16:56:00.230Z,22.31
2023-03-08T16:58:26.544Z,22.27
2023-03-08T17:00:53.096Z,22.29
2023-03-08T17:03:19.482Z,22.30
2023-03-08T17:05:45.875Z,22.31
2023-03-08T17:08:12.954Z,22.31
2023-03-08T17:10:39.688Z,22.29
2023-03-08T17:13:06.090Z,22.27
2023-03-08T17:15:37.746Z,22.24
2023-03-08T17:18:04.064Z,22.24
2023-03-08T17:20:30.371Z,22.25
2023-03-08T17:22:56.687Z,22.25
2023-03-08T17:25:23.004Z,22.30
2023-03-08T17:27:50.608Z,22.31
2023-03-08T17:30:17.085Z,22.31
2023-03-08T17:32:43.535Z,22.28
2023-03-08T17:35:09.848Z,22.28
2023-03-08T17:37:41.517Z,22.26
2023-03-08T17:40:11.144Z,22.22
2023-03-08T17:42:37.512Z,22.18
2023-03-08T17:45:06.357Z,22.21
2023-03-08T17:47:35.835Z,22.24
2023-03-08T17:50:02.418Z,22.24
2023-03-08T17:52:28.795Z,22.24
2023-03-08T17:54:55.204Z,22.23
2023-03-08T17:57:21.787Z,22.20
2023-03-08T17:59:48.600Z,22.19
2023-03-08T18:02:16.532Z,22.23
2023-03-08T18:04:44.444Z,22.19
2023-03-08T18:07:11.154Z,22.16
2023-03-08T18:09:37.554Z,22.14
2023-03-08T18:12:07.039Z,22.11
2023-03-08T18:14:39.751Z,22.11
2023-03-08T18:17:06.793Z,22.20
2023-03-08T18:19:33.099Z,22.24
2023-03-08T18:21:59.495Z,22.23
2023-03-08T18:24:26.244Z,22.31
2023-03-08T18:26:53.113Z,22.32
2023-03-08T18:29:19.451Z,22.33
2023-03-08T18:31:45.872Z,22.33
2023-03-08T18:34:12.205Z,22.33
2023-03-08T18:36:38.625Z,22.33
2023-03-08T18:39:05.741Z,22.29
2023-03-08T18:41:32.609Z,22.30
2023-03-08T18:43:59.210Z,22.34
2023-03-08T18:46:29.791Z,22.32
2023-03-08T18:48:56.659Z,22.27
2023-03-08T18:51:22.970Z,22.34
2023-03-08T18:53:49.320Z,22.53
2023-03-08T18:56:15.857Z,22.75
2023-03-08T18:58:42.199Z,22.98
2023-03-08T19:01:12.081Z,23.18
2023-03-08T19:03:38.494Z,23.26
2023-03-08T19:06:05.147Z,23.31
2023-03-08T19:08:31.560Z,23.34
2023-03-08T19:10:58.163Z,23.35
2023-03-08T19:13:24.607Z,23.37
2023-03-08T19:15:50.990Z,23.36
2023-03-08T19:18:17.607Z,23.43
2023-03-08T19:20:43.913Z,23.52
2023-03-08T19:23:10.268Z,23.64
2023-03-08T19:25:59.705Z,23.64
2023-03-08T19:28:26.234Z,23.66
2023-03-08T19:30:52.588Z,23.64
2023-03-08T19:33:30.540Z,23.66
2023-03-08T19:35:57.537Z,23.67
2023-03-08T19:38:23.906Z,23.64
2023-03-08T19:40:50.229Z,23.64
2023-03-08T19:43:16.555Z,23.58
2023-03-08T19:45:47.929Z,23.57
2023-03-08T19:48:14.263Z,23.54
2023-03-08T19:50:44.107Z,23.57
2023-03-08T19:53:10.434Z,23.56
2023-03-08T19:55:36.757Z,23.56
2023-03-08T19:58:03.123Z,23.58
2023-03-08T20:00:29.447Z,23.61
2023-03-08T20:02:56.515Z,23.59
2023-03-08T20:05:22.897Z,23.55
2023-03-08T20:07:49.317Z,23.51
2023-03-08T20:10:16.703Z,23.54
2023-03-08T20:12:43.097Z,23.41
2023-03-08T20:15:09.472Z,23.40
2023-03-08T20:17:38.611Z,23.39
2023-03-08T20:20:06.443Z,23.25
2023-03-08T20:22:32.782Z,23.30
2023-03-08T20:24:59.091Z,23.35
2023-03-08T20:27:25.414Z,23.37
2023-03-08T20:29:52.403Z,23.40
2023-03-08T20:32:18.740Z,23.43
2023-03-08T20:34:45.070Z,23.49
2023-03-08T20:37:11.387Z,23.45
2023-03-08T20:39:37.706Z,23.47
2023-03-08T20:42:04.011Z,23.46
2023-03-08T20:44:30.327Z,23.44
2023-03-08T20:46:56.653Z,23.46
2023-03-08T20:49:23.004Z,23.43
2023-03-08T20:51:49.308Z,23.40
2023-03-08T20:54:15.694Z,23.37
2023-03-08T20:56:42.093Z,23.37
2023-03-08T20:59:08.564Z,23.34
2023-03-08T21:01:34.939Z,23.37
2023-03-08T21:04:01.340Z,23.30
2023-03-08T21:06:30.644Z,23.32
2023-03-08T21:08:57.442Z,23.25
2023-03-08T21:11:23.798Z,23.17
2023-03-08T21:13:50.629Z,23.16
2023-03-08T21:16:17.321Z,23.16
2023-03-08T21:18:45.906Z,23.16
2023-03-08T21:21:19.178Z,23.18
2023-03-08T21:23:45.515Z,23.20
2023-03-08T21:26:14.044Z,23.20
2023-03-08T21:28:40.592Z,23.23
2023-03-08T21:31:10.373Z,23.19
2023-03-08T21:33:37.066Z,23.19
2023-03-08T21:36:03.455Z,23.14
2023-03-08T21:38:29.793Z,23.12
2023-03-08T21:40:56.116Z,23.11
2023-03-08T21:43:22.436Z,23.13
2023-03-08T21:45:48.738Z,23.05
2023-03-08T21:48:15.093Z,23.02
2023-03-08T21:50:41.708Z,23.01
2023-03-08T21:53:08.200Z,22.99
2023-03-08T21:55:34.569Z,22.98
2023-03-08T21:58:00.892Z,22.97
2023-03-08T22:00:27.241Z,22.94
2023-03-08T22:02:54.708Z,22.94
2023-03-08T22:05:21.265Z,22.96
2023-03-08T22:07:47.594Z,22.95
2023-03-08T22:10:14.433Z,22.95
2023-03-08T22:12:42.136Z,22.95
2023-03-08T22:15:08.712Z,22.94
2023-03-08T22:17:35.030Z,22.90
2023-03-08T22:20:01.365Z,22.89
2023-03-08T22:22:27.704Z,22.88
2023-03-08T22:24:54.015Z,22.86
2023-03-08T22:27:20.345Z,22.84
2023-03-08T22:29:47.269Z,22.81
2023-03-08T22:32:13.627Z,22.83
2023-03-08T22:34:39.989Z,22.74
2023-03-08T22:37:06.399Z,22.67
2023-03-08T22:39:32.775Z,22.61
2023-03-08T22:41:59.096Z,22.60
2023-03-08T22:44:25.435Z,22.60
2023-03-08T22:46:51.794Z,22.60
2023-03-08T22:49:18.129Z,22.60
2023-03-08T22:51:44.437Z,22.58
2023-03-08T22:54:17.306Z,22.54
2023-03-08T22:56:43.663Z,22.54
2023-03-08T22:59:09.983Z,22.50
2023-03-08T23:01:36.383Z,22.48
2023-03-08T23:04:02.997Z,22.47
2023-03-08T23:06:29.627Z,22.59
2023-03-08T23:08:56.308Z,22.63
2023-03-08T23:11:22.688Z,22.65
2023-03-08T23:13:49.015Z,22.71
2023-03-08T23:16:15.682Z,22.83
2023-03-08T23:18:42.271Z,23.03
2023-03-08T23:21:09.924Z,23.25
2023-03-08T23:23:36.249Z,23.42
2023-03-08T23:26:03.702Z,23.55
2023-03-08T23:28:30.056Z,23.71
2023-03-08T23:30:56.390Z,23.84
2023-03-08T23:33:22.699Z,23.90
2023-03-08T23:35:49.388Z,23.46
2023-03-08T23:38:15.749Z,23.29
2023-03-08T23:40:42.074Z,23.26
2023-03-08T23:43:08.394Z,23.29
2023-03-08T23:45:34.790Z,23.29
2023-03-08T23:48:03.252Z,23.32
2023-03-08T23:50:29.893Z,23.32
2023-03-08T23:52:56.320Z,23.30
2023-03-08T23:55:22.645Z,23.36
2023-03-08T23:57:48.978Z,23.35
